Time;durP1;ratioP1;P1;durP2;ratioP2;P2;SDS_P1;SDS_P2;PMS_P1;PMS_P2;Temp;Humidity;BMP_temperature;BMP_pressure;BME280_temperature;BME280_humidity;BME280_pressure;Samples;Min_cycle;Max_cycle;Signal;HPM_P1;HPM_P2
2023/03/04 00:01:40;;;;;;;26.75;16.30;;;1.80;99.90;;;;;;7381554;19;20315;-80
2023/03/04 00:04:06;;;;;;;27.43;17.80;;;1.80;99.90;;;;;;7381916;19;20316;-79
2023/03/04 00:06:32;;;;;;;30.73;18.83;;;1.80;99.90;;;;;;7384334;19;20649;-80
2023/03/04 00:08:58;;;;;;;30.20;20.40;;;1.80;99.90;;;;;;7382153;19;20305;-79
2023/03/04 00:11:23;;;;;;;27.60;19.55;;;1.80;99.90;;;;;;7381748;19;20317;-83
2023/03/04 00:13:49;;;;;;;28.90;18.33;;;1.90;99.90;;;;;;7380753;19;20923;-81
2023/03/04 00:16:16;;;;;;;29.60;19.75;;;1.80;99.90;;;;;;7381819;19;20319;-78
2023/03/04 00:18:41;;;;;;;26.77;19.20;;;1.80;99.90;;;;;;7380522;19;20340;-80
2023/03/04 00:21:13;;;;;;;30.77;20.00;;;1.90;99.90;;;;;;7383470;19;20354;-79
2023/03/04 00:23:40;;;;;;;27.75;16.58;;;1.80;99.90;;;;;;7379521;19;20337;-82
2023/03/04 00:26:06;;;;;;;27.45;18.13;;;1.80;99.90;;;;;;7379744;19;20344;-79
2023/03/04 00:28:32;;;;;;;28.02;18.95;;;1.90;99.90;;;;;;7382545;19;20313;-78
2023/03/04 00:30:57;;;;;;;28.87;19.57;;;1.80;99.90;;;;;;7379889;19;20316;-79
2023/03/04 00:33:23;;;;;;;25.55;16.08;;;1.80;99.90;;;;;;7376492;19;20324;-79
2023/03/04 00:35:49;;;;;;;28.40;18.55;;;1.80;99.90;;;;;;7379733;19;20348;-83
2023/03/04 00:38:15;;;;;;;29.30;18.27;;;1.80;99.90;;;;;;7379338;19;20415;-79
2023/03/04 00:40:41;;;;;;;25.90;15.23;;;1.80;99.90;;;;;;7379529;19;20876;-80
2023/03/04 00:43:07;;;;;;;23.97;16.77;;;1.80;99.90;;;;;;7378421;19;20321;-82
2023/03/04 00:45:34;;;;;;;24.17;16.92;;;1.80;99.90;;;;;;7382266;19;20763;-79
2023/03/04 00:48:00;;;;;;;26.38;16.70;;;1.90;99.90;;;;;;7378284;19;20384;-81
2023/03/04 00:50:26;;;;;;;23.48;16.42;;;1.80;99.90;;;;;;7378694;19;20717;-82
2023/03/04 00:52:51;;;;;;;23.50;16.37;;;1.80;99.90;;;;;;7375564;19;20336;-79
2023/03/04 00:55:18;;;;;;;19.35;13.55;;;1.90;99.90;;;;;;7379802;19;20760;-78
2023/03/04 00:57:43;;;;;;;21.70;15.60;;;1.90;99.90;;;;;;7376813;19;20693;-80
2023/03/04 01:00:10;;;;;;;23.17;16.23;;;1.90;99.90;;;;;;7377554;19;20312;-89
2023/03/04 01:02:36;;;;;;;22.30;15.15;;;1.90;99.90;;;;;;7376212;19;20308;-79
2023/03/04 01:05:01;;;;;;;20.93;15.13;;;1.90;99.90;;;;;;7378246;19;20376;-78
2023/03/04 01:07:27;;;;;;;21.20;15.02;;;1.90;99.90;;;;;;7379451;19;20320;-78
2023/03/04 01:09:53;;;;;;;22.88;15.10;;;1.90;99.90;;;;;;7379740;19;20337;-78
2023/03/04 01:12:19;;;;;;;21.97;14.10;;;1.90;99.90;;;;;;7377408;19;20335;-83
2023/03/04 01:14:44;;;;;;;20.93;14.93;;;1.90;99.90;;;;;;7379872;19;20356;-80
2023/03/04 01:17:12;;;;;;;21.70;14.50;;;1.90;99.90;;;;;;7376378;19;20328;-82
2023/03/04 01:19:39;;;;;;;19.83;14.88;;;1.90;99.90;;;;;;7379537;19;20361;-83
2023/03/04 01:22:05;;;;;;;19.40;13.95;;;1.90;99.90;;;;;;7379289;19;20396;-78
2023/03/04 01:24:31;;;;;;;20.55;14.02;;;1.90;99.90;;;;;;7380481;19;20889;-78
2023/03/04 01:26:56;;;;;;;21.67;14.63;;;1.90;99.90;;;;;;7380717;19;20301;-79
2023/03/04 01:29:22;;;;;;;18.83;13.38;;;1.90;99.90;;;;;;7378106;19;20877;-78
2023/03/04 01:31:47;;;;;;;19.80;14.13;;;1.90;99.90;;;;;;7364963;19;20352;-80
2023/03/04 01:34:13;;;;;;;23.57;15.27;;;1.90;99.90;;;;;;7381695;19;20664;-80
2023/03/04 01:36:39;;;;;;;19.45;13.43;;;2.00;99.90;;;;;;7378515;19;20324;-82
2023/03/04 01:39:04;;;;;;;20.50;12.93;;;2.00;99.90;;;;;;7378573;19;20317;-79
2023/03/04 01:41:33;;;;;;;18.90;13.73;;;2.00;99.90;;;;;;7394771;19;20342;-83
2023/03/04 01:44:20;;;;;;;19.40;13.55;;;2.20;99.90;;;;;;7293869;19;2004615;-81
2023/03/04 01:46:47;;;;;;;19.65;13.10;;;2.00;99.90;;;;;;7400825;19;20384;-86
2023/03/04 01:49:14;;;;;;;17.13;13.35;;;2.00;99.90;;;;;;7387645;19;20353;-81
2023/03/04 01:51:42;;;;;;;16.90;12.30;;;2.00;99.90;;;;;;7377923;19;20313;-81
2023/03/04 01:54:08;;;;;;;17.65;12.38;;;2.00;99.90;;;;;;7389933;19;20320;-80
2023/03/04 01:56:36;;;;;;;18.73;13.20;;;2.00;99.90;;;;;;7367852;19;20693;-86
2023/03/04 01:59:22;;;;;;;16.67;12.03;;;2.00;99.90;;;;;;7400977;19;20317;-80
2023/03/04 02:01:53;;;;;;;17.65;12.25;;;2.00;99.90;;;;;;7280301;19;2004235;-79
2023/03/04 02:04:21;;;;;;;16.80;12.40;;;2.00;99.90;;;;;;7377299;19;20320;-80
2023/03/04 02:06:47;;;;;;;16.73;11.35;;;2.00;99.90;;;;;;7379160;19;20356;-78
2023/03/04 02:09:13;;;;;;;16.37;11.87;;;2.00;99.90;;;;;;7378380;19;20346;-80
2023/03/04 02:11:38;;;;;;;15.10;11.50;;;2.00;99.90;;;;;;7375517;19;20320;-78
2023/03/04 02:14:04;;;;;;;18.90;11.93;;;2.10;99.90;;;;;;7376118;19;20653;-79
2023/03/04 02:16:30;;;;;;;16.20;11.87;;;2.10;99.90;;;;;;7376112;19;20340;-79
2023/03/04 02:18:56;;;;;;;17.63;12.07;;;2.00;99.90;;;;;;7377553;19;20671;-82
2023/03/04 02:21:24;;;;;;;17.17;11.75;;;2.10;99.90;;;;;;7378201;19;20320;-80
2023/03/04 02:24:16;;;;;;;14.80;11.15;;;2.10;99.90;;;;;;7376757;19;20357;-77
2023/03/04 02:26:42;;;;;;;16.93;11.50;;;2.10;99.90;;;;;;7273777;19;2004250;-80
2023/03/04 02:29:10;;;;;;;17.38;11.68;;;2.10;99.90;;;;;;7378486;19;20316;-79
2023/03/04 02:31:40;;;;;;;17.10;11.77;;;2.10;99.90;;;;;;7374902;19;20316;-76
2023/03/04 02:34:16;;;;;;;17.58;11.88;;;2.10;99.90;;;;;;7374613;19;21277;-80
2023/03/04 02:36:42;;;;;;;14.85;10.05;;;2.10;99.90;;;;;;7375451;19;20344;-81
2023/03/04 02:39:12;;;;;;;16.77;12.30;;;2.10;99.90;;;;;;7382615;19;20321;-78
2023/03/04 02:41:40;;;;;;;14.20;11.07;;;2.10;99.90;;;;;;7381177;19;20313;-80
2023/03/04 02:44:16;;;;;;;14.07;10.93;;;2.10;99.90;;;;;;7379580;19;20327;-80
2023/03/04 02:46:43;;;;;;;16.75;11.30;;;2.10;99.90;;;;;;7382917;19;20345;-82
2023/03/04 02:49:15;;;;;;;11.83;9.43;;;2.00;99.90;;;;;;7381472;19;20397;-77
2023/03/04 02:51:41;;;;;;;18.10;11.02;;;2.10;99.90;;;;;;7380697;19;20428;-79
2023/03/04 02:54:17;;;;;;;16.83;10.47;;;2.10;99.90;;;;;;7381161;19;20333;-77
2023/03/04 02:56:50;;;;;;;17.47;10.00;;;2.00;99.90;;;;;;7381350;19;20309;-79
2023/03/04 02:59:16;;;;;;;15.90;10.80;;;2.00;99.90;;;;;;7382405;19;20320;-81
2023/03/04 03:01:42;;;;;;;15.67;8.60;;;2.00;99.90;;;;;;7380331;19;20348;-80
2023/03/04 03:04:07;;;;;;;15.00;9.13;;;2.00;99.90;;;;;;7375894;19;20343;-79
2023/03/04 03:06:33;;;;;;;15.20;9.70;;;2.00;99.90;;;;;;7375740;19;20316;-81
2023/03/04 03:08:59;;;;;;;18.07;9.53;;;2.00;99.90;;;;;;7379532;19;20402;-77
2023/03/04 03:11:32;;;;;;;10.77;8.30;;;2.00;99.90;;;;;;7379799;19;20345;-79
2023/03/04 03:13:58;;;;;;;12.15;9.35;;;2.00;99.90;;;;;;7380575;19;20329;-80
2023/03/04 03:16:24;;;;;;;18.23;10.25;;;2.00;99.90;;;;;;7382407;19;20313;-82
2023/03/04 03:18:50;;;;;;;15.07;8.48;;;2.00;99.90;;;;;;7378536;19;21126;-79
2023/03/04 03:21:16;;;;;;;16.73;9.02;;;2.00;99.90;;;;;;7381850;19;20332;-78
2023/03/04 03:23:43;;;;;;;16.23;9.63;;;2.00;99.90;;;;;;7381500;19;21299;-80
2023/03/04 03:26:08;;;;;;;13.63;9.10;;;2.00;99.90;;;;;;7378357;19;20316;-85
2023/03/04 03:28:34;;;;;;;13.77;7.75;;;2.10;99.90;;;;;;7395210;19;20463;-79
2023/03/04 03:31:00;;;;;;;13.45;8.85;;;2.10;99.90;;;;;;7389833;19;20331;-83
2023/03/04 03:33:26;;;;;;;11.98;8.05;;;2.00;99.90;;;;;;7392780;19;21236;-87
2023/03/04 03:35:52;;;;;;;14.50;8.80;;;2.00;99.90;;;;;;7394078;19;21174;-83
2023/03/04 03:38:17;;;;;;;10.98;7.85;;;2.00;99.90;;;;;;7392888;19;20329;-83
2023/03/04 03:40:43;;;;;;;14.13;8.50;;;2.00;99.90;;;;;;7394802;19;20356;-79
2023/03/04 03:43:08;;;;;;;15.75;8.48;;;2.00;99.90;;;;;;7393119;19;20312;-82
2023/03/04 03:45:34;;;;;;;13.50;9.07;;;2.00;99.90;;;;;;7389093;19;20328;-79
2023/03/04 03:48:00;;;;;;;12.50;8.37;;;2.00;99.90;;;;;;7392010;19;20345;-79
2023/03/04 03:50:27;;;;;;;14.65;8.30;;;2.10;99.90;;;;;;7392402;19;20839;-85
2023/03/04 03:52:53;;;;;;;14.07;8.27;;;2.10;99.90;;;;;;7386004;19;20355;-82
2023/03/04 03:55:19;;;;;;;14.85;8.50;;;2.00;99.90;;;;;;7383244;19;20320;-79
2023/03/04 03:57:45;;;;;;;13.60;8.52;;;2.00;99.90;;;;;;7381181;19;21510;-79
2023/03/04 04:00:11;;;;;;;12.50;7.90;;;2.00;99.90;;;;;;7382320;19;20325;-82
2023/03/04 04:02:39;;;;;;;11.75;8.05;;;2.00;99.90;;;;;;7373902;19;20427;-82
2023/03/04 04:05:06;;;;;;;13.13;7.68;;;2.00;99.90;;;;;;7379167;19;20417;-79
2023/03/04 04:07:31;;;;;;;12.02;7.68;;;2.00;99.90;;;;;;7383125;19;20859;-81
2023/03/04 04:09:57;;;;;;;13.00;7.78;;;2.00;99.90;;;;;;7383464;19;20320;-83
2023/03/04 04:12:23;;;;;;;11.03;7.60;;;2.10;99.90;;;;;;7381106;19;21305;-82
2023/03/04 04:14:48;;;;;;;9.88;7.15;;;2.00;99.90;;;;;;7386456;19;20353;-78
2023/03/04 04:17:14;;;;;;;15.33;8.03;;;2.00;99.90;;;;;;7377590;19;20438;-83
2023/03/04 04:19:40;;;;;;;13.77;7.82;;;2.00;99.90;;;;;;7386067;19;20320;-87
2023/03/04 04:22:07;;;;;;;14.37;8.43;;;2.00;99.90;;;;;;7370365;19;20317;-79
2023/03/04 04:24:33;;;;;;;15.90;8.35;;;2.00;99.90;;;;;;7400626;19;20367;-79
2023/03/04 04:26:58;;;;;;;10.30;7.57;;;2.00;99.90;;;;;;7401342;19;20312;-81
2023/03/04 04:29:24;;;;;;;12.60;7.90;;;1.90;99.90;;;;;;7400613;19;20440;-82
2023/03/04 04:31:50;;;;;;;12.88;7.90;;;2.00;99.90;;;;;;7397360;19;20353;-82
2023/03/04 04:34:15;;;;;;;11.40;8.10;;;1.90;99.90;;;;;;7401290;19;20353;-78
2023/03/04 04:36:41;;;;;;;12.48;7.43;;;2.00;99.90;;;;;;7400214;19;20343;-80
2023/03/04 04:39:06;;;;;;;11.13;7.83;;;2.00;99.90;;;;;;7397962;19;20317;-80
2023/03/04 04:41:37;;;;;;;18.00;8.10;;;1.90;99.90;;;;;;7401470;19;20324;-85
2023/03/04 04:44:03;;;;;;;12.93;7.80;;;1.90;99.90;;;;;;7402370;19;20770;-84
2023/03/04 04:46:28;;;;;;;15.40;7.85;;;1.90;99.90;;;;;;7403514;19;20349;-87
2023/03/04 04:48:54;;;;;;;10.82;7.40;;;1.90;99.90;;;;;;7401421;19;20329;-83
2023/03/04 04:51:20;;;;;;;11.40;7.53;;;1.90;99.90;;;;;;7399146;19;20327;-84
2023/03/04 04:53:46;;;;;;;13.43;7.78;;;1.90;99.90;;;;;;7396825;19;20424;-84
2023/03/04 04:56:13;;;;;;;12.63;7.25;;;2.00;99.90;;;;;;7398728;19;20356;-80
2023/03/04 04:58:39;;;;;;;12.65;7.22;;;1.90;99.90;;;;;;7399169;19;20338;-85
2023/03/04 05:01:05;;;;;;;11.35;6.90;;;1.90;99.90;;;;;;7402359;19;20348;-79
2023/03/04 05:03:32;;;;;;;11.50;6.90;;;1.90;99.90;;;;;;7401758;19;20312;-79
2023/03/04 05:05:58;;;;;;;12.07;7.57;;;1.90;99.90;;;;;;7400882;19;20308;-79
2023/03/04 05:08:23;;;;;;;10.03;7.10;;;1.90;99.90;;;;;;7399199;19;20328;-78
2023/03/04 05:10:49;;;;;;;10.10;6.70;;;1.90;99.90;;;;;;7397850;19;20348;-80
2023/03/04 05:13:14;;;;;;;10.83;6.87;;;1.90;99.90;;;;;;7398410;19;20399;-82
2023/03/04 05:15:40;;;;;;;9.15;6.22;;;1.90;99.90;;;;;;7398160;19;20312;-81
2023/03/04 05:18:06;;;;;;;9.87;6.17;;;2.10;99.90;;;;;;7397869;19;20375;-79
2023/03/04 05:20:31;;;;;;;8.82;5.93;;;2.00;99.90;;;;;;7400366;19;20309;-79
2023/03/04 05:22:57;;;;;;;9.37;6.30;;;2.10;99.90;;;;;;7399183;19;20304;-79
2023/03/04 05:25:22;;;;;;;13.25;6.57;;;2.00;99.90;;;;;;7401461;19;20352;-80
2023/03/04 05:27:48;;;;;;;11.10;6.50;;;2.00;99.90;;;;;;7400662;19;20340;-86
2023/03/04 05:30:13;;;;;;;8.45;6.18;;;2.00;99.90;;;;;;7398595;19;21120;-80
2023/03/04 05:32:39;;;;;;;8.83;6.23;;;2.00;99.90;;;;;;7395749;19;20305;-79
2023/03/04 05:35:05;;;;;;;9.85;6.32;;;2.00;99.90;;;;;;7400013;19;21004;-80
2023/03/04 05:37:31;;;;;;;9.33;6.03;;;2.00;99.90;;;;;;7401067;19;20401;-81
2023/03/04 05:39:56;;;;;;;10.67;6.40;;;2.00;99.90;;;;;;7398568;19;20328;-84
2023/03/04 05:42:22;;;;;;;9.05;6.13;;;2.00;99.90;;;;;;7400598;19;20382;-82
2023/03/04 05:44:47;;;;;;;12.17;6.93;;;2.00;99.90;;;;;;7401529;19;20359;-87
2023/03/04 05:47:13;;;;;;;8.68;5.80;;;2.00;99.90;;;;;;7401015;19;20304;-85
2023/03/04 05:49:39;;;;;;;11.80;6.40;;;2.10;99.90;;;;;;7400248;19;20349;-79
2023/03/04 05:52:05;;;;;;;9.80;6.20;;;2.10;99.90;;;;;;7398664;19;20316;-82
2023/03/04 05:54:31;;;;;;;9.67;6.10;;;2.00;99.90;;;;;;7402874;19;20459;-84
2023/03/04 05:56:56;;;;;;;9.18;6.43;;;2.10;99.90;;;;;;7402661;19;20328;-85
2023/03/04 05:59:22;;;;;;;9.87;5.77;;;2.10;99.90;;;;;;7400199;19;20744;-79
2023/03/04 06:01:48;;;;;;;11.32;6.95;;;2.10;99.90;;;;;;7399487;19;20349;-80
2023/03/04 06:04:13;;;;;;;10.17;6.07;;;2.10;99.90;;;;;;7399694;19;20317;-80
2023/03/04 06:06:39;;;;;;;9.75;6.30;;;2.10;99.90;;;;;;7400398;19;20407;-83
2023/03/04 06:09:04;;;;;;;11.97;6.60;;;2.10;99.90;;;;;;7401429;19;20530;-78
2023/03/04 06:11:30;;;;;;;11.47;5.93;;;2.10;99.90;;;;;;7399718;19;20293;-83
2023/03/04 06:13:56;;;;;;;9.80;6.03;;;2.20;99.90;;;;;;7397973;19;20322;-82
2023/03/04 06:16:21;;;;;;;11.67;6.40;;;2.20;99.90;;;;;;7399417;19;20308;-82
2023/03/04 06:18:48;;;;;;;10.05;5.90;;;2.20;99.90;;;;;;7397900;19;20395;-81
2023/03/04 06:21:14;;;;;;;9.60;6.05;;;2.20;99.90;;;;;;7401016;19;20352;-80
2023/03/04 06:23:40;;;;;;;10.70;5.93;;;2.20;99.90;;;;;;7398656;19;20322;-77
2023/03/04 06:26:08;;;;;;;8.10;5.70;;;2.20;99.90;;;;;;7391663;19;20341;-78
2023/03/04 06:28:33;;;;;;;10.38;6.43;;;2.30;99.90;;;;;;7395797;19;20348;-83
2023/03/04 06:31:00;;;;;;;11.27;6.23;;;2.30;99.90;;;;;;7362248;19;20436;-84
2023/03/04 06:33:26;;;;;;;10.13;6.10;;;2.30;99.90;;;;;;7396249;19;20301;-83
2023/03/04 06:35:55;;;;;;;11.43;6.03;;;2.30;99.90;;;;;;7397396;19;20356;-81
2023/03/04 06:38:20;;;;;;;8.15;5.63;;;2.30;99.90;;;;;;7397289;19;20328;-82
2023/03/04 06:40:46;;;;;;;7.90;5.97;;;2.40;99.90;;;;;;7396228;19;20365;-84
2023/03/04 06:43:12;;;;;;;10.23;5.97;;;2.40;99.90;;;;;;7393480;19;20431;-88
2023/03/04 06:45:38;;;;;;;11.97;5.73;;;2.40;99.90;;;;;;7396037;19;20313;-83
2023/03/04 06:48:03;;;;;;;9.82;5.72;;;2.40;99.90;;;;;;7396652;19;20349;-83
2023/03/04 06:50:29;;;;;;;10.02;6.10;;;2.50;99.90;;;;;;7396088;19;20332;-85
2023/03/04 06:52:57;;;;;;;8.67;5.80;;;2.60;99.90;;;;;;7394557;19;20368;-85
2023/03/04 06:55:23;;;;;;;9.23;5.20;;;2.50;99.90;;;;;;7396569;19;20459;-85
2023/03/04 06:57:50;;;;;;;11.63;5.57;;;2.40;99.90;;;;;;7396553;19;20352;-86
2023/03/04 07:00:16;;;;;;;10.38;5.75;;;2.50;99.90;;;;;;7383478;19;20396;-79
2023/03/04 07:02:42;;;;;;;6.47;5.07;;;2.50;99.90;;;;;;7385268;19;20320;-78
2023/03/04 07:05:10;;;;;;;8.35;5.55;;;2.50;99.90;;;;;;7388176;19;20348;-81
2023/03/04 07:07:37;;;;;;;8.07;4.97;;;2.50;99.90;;;;;;7388055;19;20375;-80
2023/03/04 07:10:03;;;;;;;12.38;6.28;;;2.50;99.90;;;;;;7388942;19;20324;-78
2023/03/04 07:12:29;;;;;;;8.90;5.50;;;2.50;99.90;;;;;;7385688;19;20309;-80
2023/03/04 07:14:54;;;;;;;8.03;5.27;;;2.60;99.90;;;;;;7384905;19;21934;-81
2023/03/04 07:17:20;;;;;;;10.53;6.03;;;2.60;99.90;;;;;;7386315;19;20337;-77
2023/03/04 07:19:45;;;;;;;9.60;5.73;;;2.70;99.90;;;;;;7384370;19;20400;-79
2023/03/04 07:22:11;;;;;;;13.77;7.93;;;2.70;99.90;;;;;;7382559;19;20344;-83
2023/03/04 07:24:39;;;;;;;10.17;6.70;;;2.60;99.90;;;;;;7386254;19;20672;-80
2023/03/04 07:27:04;;;;;;;10.70;6.60;;;2.60;99.90;;;;;;7384034;19;20363;-80
2023/03/04 07:29:30;;;;;;;12.93;6.87;;;2.50;99.90;;;;;;7383861;19;20352;-78
2023/03/04 07:31:55;;;;;;;9.35;5.85;;;2.60;99.90;;;;;;7382055;19;20851;-79
2023/03/04 07:34:21;;;;;;;8.77;6.37;;;2.70;99.90;;;;;;7386332;19;20313;-78
2023/03/04 07:36:48;;;;;;;9.48;5.65;;;2.70;99.90;;;;;;7388331;19;20333;-85
2023/03/04 07:39:13;;;;;;;9.80;6.13;;;2.70;99.90;;;;;;7388576;19;20402;-80
2023/03/04 07:41:41;;;;;;;10.67;6.03;;;2.70;99.90;;;;;;7385695;19;20332;-82
2023/03/04 07:44:07;;;;;;;9.80;5.72;;;2.70;99.90;;;;;;7387023;19;20312;-80
2023/03/04 07:46:39;;;;;;;8.75;5.72;;;2.80;99.90;;;;;;7387331;19;20313;-79
2023/03/04 07:49:05;;;;;;;8.05;5.60;;;2.80;99.90;;;;;;7386427;19;20847;-80
2023/03/04 07:51:30;;;;;;;9.82;5.25;;;2.80;99.90;;;;;;7386960;19;20309;-78
2023/03/04 07:54:02;;;;;;;10.43;5.67;;;3.00;99.90;;;;;;7386471;19;20304;-80
2023/03/04 07:56:29;;;;;;;7.15;5.53;;;2.90;99.90;;;;;;7386610;19;20324;-77
2023/03/04 07:59:02;;;;;;;7.27;4.93;;;2.90;99.90;;;;;;7388080;19;20333;-79
2023/03/04 08:01:29;;;;;;;8.80;5.18;;;2.90;99.90;;;;;;7386431;19;20349;-79
2023/03/04 08:03:55;;;;;;;9.43;5.13;;;3.00;99.90;;;;;;7389524;19;20344;-81
2023/03/04 08:06:21;;;;;;;9.32;5.07;;;3.00;99.90;;;;;;7387900;19;20831;-79
2023/03/04 08:08:48;;;;;;;6.90;4.72;;;3.00;99.90;;;;;;7389890;19;20344;-81
2023/03/04 08:11:17;;;;;;;10.63;5.60;;;3.00;99.90;;;;;;7388117;19;20320;-81
2023/03/04 08:13:45;;;;;;;9.77;5.28;;;2.90;99.90;;;;;;7382173;19;21155;-80
2023/03/04 08:16:17;;;;;;;8.00;5.57;;;3.00;99.90;;;;;;7386175;19;20681;-80
2023/03/04 08:18:47;;;;;;;10.13;4.78;;;3.10;99.90;;;;;;7387633;19;20607;-80
2023/03/04 08:21:17;;;;;;;7.18;5.13;;;3.00;99.90;;;;;;7388559;19;20380;-78
2023/03/04 08:23:43;;;;;;;10.07;5.53;;;3.20;99.90;;;;;;7387603;19;20672;-81
2023/03/04 08:26:13;;;;;;;6.90;5.13;;;3.10;99.90;;;;;;7385173;19;20316;-81
2023/03/04 08:28:47;;;;;;;7.38;5.15;;;3.20;99.90;;;;;;7387409;19;20328;-82
2023/03/04 08:31:13;;;;;;;8.32;5.25;;;3.20;99.90;;;;;;7385691;19;20349;-78
2023/03/04 08:33:40;;;;;;;8.80;5.55;;;3.20;99.90;;;;;;7385868;19;20687;-77
2023/03/04 08:36:08;;;;;;;8.35;5.20;;;3.30;99.90;;;;;;7389072;19;20321;-80
2023/03/04 08:38:34;;;;;;;8.43;5.05;;;3.40;99.90;;;;;;7388108;19;20317;-79
2023/03/04 08:41:02;;;;;;;7.23;5.20;;;3.30;99.90;;;;;;7390057;19;20400;-84
2023/03/04 08:43:28;;;;;;;7.43;5.50;;;3.40;99.90;;;;;;7388383;19;20418;-78
2023/03/04 08:45:54;;;;;;;10.75;5.28;;;3.40;99.90;;;;;;7386719;19;20861;-79
2023/03/04 08:48:20;;;;;;;8.30;4.97;;;3.50;99.90;;;;;;7384002;19;20328;-78
2023/03/04 08:50:48;;;;;;;8.98;5.30;;;3.50;99.90;;;;;;7384826;19;20311;-78
2023/03/04 08:53:16;;;;;;;7.40;5.40;;;3.60;99.90;;;;;;7385440;19;20317;-81
2023/03/04 08:55:42;;;;;;;8.95;5.90;;;3.60;99.90;;;;;;7384918;19;20334;-79
2023/03/04 08:58:07;;;;;;;6.20;4.30;;;3.60;99.90;;;;;;7384452;19;20337;-75
2023/03/04 09:00:34;;;;;;;8.00;5.18;;;3.60;99.90;;;;;;7384756;19;20400;-82
2023/03/04 09:02:59;;;;;;;7.13;5.03;;;3.70;99.90;;;;;;7385259;19;20337;-77
2023/03/04 09:05:26;;;;;;;9.55;4.90;;;3.90;99.90;;;;;;7381433;19;20976;-76
2023/03/04 09:07:53;;;;;;;7.43;4.60;;;3.80;99.90;;;;;;7384098;19;20324;-77
2023/03/04 09:10:18;;;;;;;6.43;5.00;;;3.80;99.90;;;;;;7386227;19;20348;-81
2023/03/04 09:12:45;;;;;;;6.50;5.03;;;3.80;99.90;;;;;;7383376;19;21471;-78
2023/03/04 09:15:11;;;;;;;8.13;5.50;;;3.90;99.90;;;;;;7386671;19;20305;-80
2023/03/04 09:17:42;;;;;;;7.90;5.00;;;3.90;99.90;;;;;;7386174;19;21096;-77
2023/03/04 09:20:10;;;;;;;6.10;4.38;;;4.00;99.90;;;;;;7386669;19;20304;-76
2023/03/04 09:22:37;;;;;;;7.43;4.53;;;3.90;99.90;;;;;;7382251;19;20339;-76
2023/03/04 09:25:03;;;;;;;8.60;5.63;;;4.00;99.90;;;;;;7384221;19;20356;-82
2023/03/04 09:27:29;;;;;;;7.32;4.65;;;4.00;99.90;;;;;;7383468;19;20329;-78
2023/03/04 09:29:55;;;;;;;7.50;4.85;;;4.10;99.90;;;;;;7383652;19;20321;-75
2023/03/04 09:32:20;;;;;;;5.20;4.10;;;4.10;99.90;;;;;;7381808;19;20319;-80
2023/03/04 09:34:46;;;;;;;6.50;4.50;;;4.00;99.90;;;;;;7381705;19;20357;-81
2023/03/04 09:37:11;;;;;;;5.60;4.27;;;4.00;99.90;;;;;;7382036;19;20334;-82
2023/03/04 09:39:37;;;;;;;5.13;4.13;;;4.00;99.90;;;;;;7380160;19;20317;-80
2023/03/04 09:42:03;;;;;;;5.47;3.97;;;4.00;99.90;;;;;;7380443;19;20353;-79
2023/03/04 09:44:55;;;;;;;7.50;4.57;;;4.10;99.90;;;;;;7381686;19;20311;-79
2023/03/04 09:47:20;;;;;;;6.53;4.47;;;4.10;99.90;;;;;;7278709;19;2004399;-82
2023/03/04 09:50:00;;;;;;;5.13;3.78;;;4.20;99.90;;;;;;7380303;19;20795;-81
2023/03/04 09:52:44;;;;;;;7.22;4.05;;;4.30;99.90;;;;;;7379324;19;23619;-81
2023/03/04 09:55:16;;;;;;;6.18;3.67;;;4.40;99.90;;;;;;7275306;19;2004270;-78
2023/03/04 09:57:59;;;;;;;6.63;3.95;;;4.50;99.90;;;;;;7377200;19;20353;-78
2023/03/04 10:00:34;;;;;;;6.03;3.33;;;4.50;99.90;;;;;;7375414;19;20313;-79
2023/03/04 10:03:12;;;;;;;4.90;3.58;;;4.50;99.90;;;;;;7377603;19;20316;-79
2023/03/04 10:06:04;;;;;;;7.25;4.43;;;4.40;99.90;;;;;;7277416;19;2004167;-80
2023/03/04 10:08:49;;;;;;;5.28;4.03;;;4.40;99.90;;;;;;7381005;19;20347;-78
2023/03/04 10:11:15;;;;;;;8.43;4.13;;;4.30;99.90;;;;;;7275279;19;2010265;-79
2023/03/04 10:13:58;;;;;;;4.90;3.67;;;4.30;99.90;;;;;;7382830;19;20343;-85
2023/03/04 10:16:28;;;;;;;7.50;4.47;;;4.30;99.90;;;;;;7396739;19;20332;-85
2023/03/04 10:18:56;;;;;;;4.88;3.53;;;4.40;99.90;;;;;;7395228;19;20357;-81
2023/03/04 10:21:33;;;;;;;5.10;3.42;;;4.50;99.90;;;;;;7397280;19;20337;-82
2023/03/04 10:24:10;;;;;;;5.15;3.35;;;4.60;99.90;;;;;;7397802;19;20324;-81
2023/03/04 10:26:35;;;;;;;2.92;2.63;;;4.70;99.90;;;;;;7396324;19;20332;-90
2023/03/04 10:29:05;;;;;;;4.43;3.30;;;4.70;99.90;;;;;;7398305;19;20339;-84
2023/03/04 10:31:35;;;;;;;3.47;2.60;;;4.70;99.90;;;;;;7399298;19;20347;-80
2023/03/04 10:34:04;;;;;;;2.85;2.10;;;4.80;99.90;;;;;;7387817;19;20345;-81
2023/03/04 10:36:29;;;;;;;2.10;1.90;;;4.70;99.90;;;;;;7389968;19;20434;-80
2023/03/04 10:38:57;;;;;;;2.30;2.10;;;4.60;99.90;;;;;;7390935;19;22765;-83
2023/03/04 10:41:25;;;;;;;2.70;2.13;;;4.60;99.90;;;;;;7392288;19;20325;-82
2023/03/04 10:44:14;;;;;;;2.40;2.20;;;4.70;99.90;;;;;;7398806;19;20364;-90
2023/03/04 10:46:46;;;;;;;3.22;2.17;;;4.70;99.90;;;;;;7281143;19;2004423;-80
2023/03/04 10:49:14;;;;;;;4.82;2.75;;;4.60;99.90;;;;;;7377082;19;20348;-88
2023/03/04 10:52:02;;;;;;;4.90;2.38;;;4.70;99.90;;;;;;7376601;19;20320;-78
2023/03/04 10:54:29;;;;;;;3.67;2.33;;;4.70;99.90;;;;;;7377390;19;20378;-82
2023/03/04 10:57:15;;;;;;;2.85;2.33;;;4.80;99.90;;;;;;7379822;19;20383;-84
2023/03/04 10:59:46;;;;;;;2.80;2.30;;;5.00;99.90;;;;;;7271253;19;2004303;-82
2023/03/04 11:02:31;;;;;;;4.13;2.97;;;5.20;99.90;;;;;;7374562;19;20352;-82
2023/03/04 11:05:17;;;;;;;4.03;2.30;;;5.30;99.90;;;;;;7378604;19;20366;-80
2023/03/04 11:07:45;;;;;;;3.75;1.98;;;5.20;99.90;;;;;;7275207;19;2004679;-84
2023/03/04 11:10:17;;;;;;;7.53;2.93;;;5.20;99.90;;;;;;7375449;19;20356;-76
2023/03/04 11:13:09;;;;;;;5.25;2.78;;;5.20;99.90;;;;;;7376999;19;20340;-81
2023/03/04 11:15:50;;;;;;;2.00;1.80;;;5.20;99.90;;;;;;7378341;19;20312;-78
2023/03/04 11:18:16;;;;;;;3.47;2.67;;;5.20;99.90;;;;;;7272934;19;2004557;-79
2023/03/04 11:20:42;;;;;;;8.27;4.70;;;5.10;99.90;;;;;;7379435;19;20460;-82
2023/03/04 11:23:32;;;;;;;4.47;3.10;;;5.00;99.90;;;;;;7377990;19;20325;-81
2023/03/04 11:26:01;;;;;;;7.40;4.07;;;5.00;99.90;;;;;;7378012;19;20317;-79
2023/03/04 11:28:35;;;;;;;4.65;3.22;;;5.00;99.90;;;;;;7377921;19;20844;-77
2023/03/04 11:31:03;;;;;;;2.42;2.03;;;5.00;99.90;;;;;;7376684;19;20317;-78
2023/03/04 11:33:46;;;;;;;4.20;1.85;;;4.90;99.90;;;;;;7378480;19;20396;-79
2023/03/04 11:36:22;;;;;;;3.03;2.50;;;4.90;99.90;;;;;;7276605;19;2019852;-79
2023/03/04 11:38:49;;;;;;;2.53;2.13;;;4.90;99.90;;;;;;7375632;19;20344;-79
2023/03/04 11:41:43;;;;;;;1.80;1.70;;;4.80;99.90;;;;;;7377222;19;20309;-80
2023/03/04 11:44:10;;;;;;;3.38;2.35;;;4.90;99.90;;;;;;7274301;19;2004389;-78
2023/03/04 11:46:58;;;;;;;2.97;2.43;;;4.90;99.90;;;;;;7376597;19;20301;-78
2023/03/04 11:50:04;;;;;;;4.50;2.95;;;4.80;99.90;;;;;;7280851;19;2004997;-81
2023/03/04 11:52:52;;;;;;;2.90;2.20;;;4.90;99.90;;;;;;7279795;19;2004365;-80
2023/03/04 11:55:22;;;;;;;3.97;2.58;;;4.90;99.90;;;;;;7281054;19;2005846;-81
2023/03/04 11:57:55;;;;;;;2.70;2.17;;;4.90;99.90;;;;;;7383816;19;20380;-79
2023/03/04 12:00:37;;;;;;;3.53;2.40;;;5.00;99.90;;;;;;7380214;19;20404;-83
2023/03/04 12:03:18;;;;;;;4.95;2.55;;;5.00;99.90;;;;;;7385105;19;20345;-81
2023/03/04 12:06:14;;;;;;;2.47;2.13;;;5.00;99.90;;;;;;7282045;19;2006027;-82
2023/03/04 12:08:48;;;;;;;3.90;3.08;;;5.00;99.90;;;;;;7284973;19;2004434;-78
2023/03/04 12:11:42;;;;;;;7.37;3.63;;;5.10;99.90;;;;;;7386563;19;20320;-85
2023/03/04 12:14:24;;;;;;;3.30;2.78;;;5.10;99.90;;;;;;7282887;19;2004702;-80
2023/03/04 12:17:37;;;;;;;3.78;2.65;;;5.10;99.90;;;;;;7385542;19;20317;-79
2023/03/04 12:20:40;;;;;;;4.32;2.50;;;5.10;99.90;;;;;;7280687;19;2004593;-81
2023/03/04 12:23:06;;;;;;;5.97;4.00;;;5.20;99.90;;;;;;7185376;19;2006270;-80
2023/03/04 12:26:08;;;;;;;3.40;2.60;;;5.30;99.90;;;;;;7387577;19;20312;-84
2023/03/04 12:28:56;;;;;;;3.83;2.38;;;5.30;99.90;;;;;;7281995;19;2004417;-79
2023/03/04 12:31:44;;;;;;;3.90;2.33;;;5.40;99.90;;;;;;7284672;19;2004240;-84
2023/03/04 12:34:28;;;;;;;2.67;2.00;;;5.50;99.90;;;;;;7289227;19;2004509;-84
2023/03/04 12:37:18;;;;;;;3.45;2.00;;;5.50;99.90;;;;;;7394447;19;20349;-81
2023/03/04 12:40:04;;;;;;;4.23;2.10;;;5.60;99.90;;;;;;7288580;19;2004389;-79
2023/03/04 12:42:47;;;;;;;2.97;2.00;;;5.60;99.90;;;;;;7391300;19;20349;-86
2023/03/04 12:45:19;;;;;;;3.83;2.20;;;5.60;99.90;;;;;;7287272;19;2004244;-82
2023/03/04 12:47:57;;;;;;;3.63;1.95;;;5.80;99.90;;;;;;7393136;19;20347;-89
2023/03/04 12:50:47;;;;;;;3.17;1.90;;;5.90;99.90;;;;;;7389409;19;20343;-84
2023/03/04 12:53:16;;;;;;;3.83;2.05;;;5.90;99.90;;;;;;7289521;19;2004208;-81
2023/03/04 12:55:43;;;;;;;2.35;1.85;;;5.90;99.90;;;;;;7394095;19;20340;-88
2023/03/04 12:58:17;;;;;;;1.95;1.77;;;5.90;99.90;;;;;;7392074;19;20354;-79
2023/03/04 13:00:47;;;;;;;4.60;2.40;;;5.90;99.90;;;;;;7387876;19;21261;-84